sensor_id;sensor_type;location;lat;lon;timestamp;P1;durP1;ratioP1;P2;durP2;ratioP2
13061;SDS011;6597;52.218;9.882;2022-08-19T00:01:51;12.48;;;7.40;;
13061;SDS011;6597;52.218;9.882;2022-08-19T00:04:20;12.05;;;7.18;;
13061;SDS011;6597;52.218;9.882;2022-08-19T00:06:48;13.35;;;7.60;;
13061;SDS011;6597;52.218;9.882;2022-08-19T00:09:15;14.43;;;6.72;;
13061;SDS011;6597;52.218;9.882;2022-08-19T00:11:45;10.70;;;7.55;;
13061;SDS011;6597;52.218;9.882;2022-08-19T00:14:12;13.27;;;6.45;;
13061;SDS011;6597;52.218;9.882;2022-08-19T00:16:42;9.85;;;7.38;;
13061;SDS011;6597;52.218;9.882;2022-08-19T00:19:09;11.50;;;6.38;;
13061;SDS011;6597;52.218;9.882;2022-08-19T00:21:36;13.00;;;7.40;;
13061;SDS011;6597;52.218;9.882;2022-08-19T00:24:05;12.10;;;7.13;;
13061;SDS011;6597;52.218;9.882;2022-08-19T00:26:31;10.55;;;7.25;;
13061;SDS011;6597;52.218;9.882;2022-08-19T00:29:01;10.30;;;6.90;;
13061;SDS011;6597;52.218;9.882;2022-08-19T00:31:28;9.85;;;7.20;;
13061;SDS011;6597;52.218;9.882;2022-08-19T00:33:56;10.80;;;7.22;;
13061;SDS011;6597;52.218;9.882;2022-08-19T00:36:22;12.85;;;7.03;;
13061;SDS011;6597;52.218;9.882;2022-08-19T00:38:49;13.80;;;7.20;;
13061;SDS011;6597;52.218;9.882;2022-08-19T00:41:17;12.02;;;7.03;;
13061;SDS011;6597;52.218;9.882;2022-08-19T00:43:56;11.20;;;6.93;;
13061;SDS011;6597;52.218;9.882;2022-08-19T00:46:25;13.82;;;7.18;;
13061;SDS011;6597;52.218;9.882;2022-08-19T00:48:52;13.88;;;7.00;;
13061;SDS011;6597;52.218;9.882;2022-08-19T00:51:20;13.27;;;7.38;;
13061;SDS011;6597;52.218;9.882;2022-08-19T00:53:47;10.30;;;7.05;;
13061;SDS011;6597;52.218;9.882;2022-08-19T00:56:13;9.95;;;6.55;;
13061;SDS011;6597;52.218;9.882;2022-08-19T00:58:40;9.75;;;6.68;;
13061;SDS011;6597;52.218;9.882;2022-08-19T01:01:07;11.75;;;6.93;;
13061;SDS011;6597;52.218;9.882;2022-08-19T01:03:35;13.35;;;6.93;;
13061;SDS011;6597;52.218;9.882;2022-08-19T01:06:02;9.55;;;6.60;;
13061;SDS011;6597;52.218;9.882;2022-08-19T01:08:29;9.50;;;6.88;;
13061;SDS011;6597;52.218;9.882;2022-08-19T01:10:56;10.07;;;6.93;;
13061;SDS011;6597;52.218;9.882;2022-08-19T01:13:25;10.38;;;7.13;;
13061;SDS011;6597;52.218;9.882;2022-08-19T01:15:56;14.52;;;6.93;;
13061;SDS011;6597;52.218;9.882;2022-08-19T01:18:25;16.80;;;7.43;;
13061;SDS011;6597;52.218;9.882;2022-08-19T01:20:56;13.02;;;6.80;;
13061;SDS011;6597;52.218;9.882;2022-08-19T01:23:29;16.92;;;7.32;;
13061;SDS011;6597;52.218;9.882;2022-08-19T01:26:09;11.25;;;7.22;;
13061;SDS011;6597;52.218;9.882;2022-08-19T01:28:37;10.48;;;6.88;;
13061;SDS011;6597;52.218;9.882;2022-08-19T01:31:04;11.35;;;6.60;;
13061;SDS011;6597;52.218;9.882;2022-08-19T01:33:32;14.65;;;6.88;;
13061;SDS011;6597;52.218;9.882;2022-08-19T01:36:03;13.27;;;6.25;;
13061;SDS011;6597;52.218;9.882;2022-08-19T01:38:34;12.55;;;6.40;;
13061;SDS011;6597;52.218;9.882;2022-08-19T01:41:02;15.02;;;6.57;;
13061;SDS011;6597;52.218;9.882;2022-08-19T01:43:29;10.27;;;6.38;;
13061;SDS011;6597;52.218;9.882;2022-08-19T01:45:55;8.15;;;6.30;;
13061;SDS011;6597;52.218;9.882;2022-08-19T01:48:22;15.02;;;6.63;;
13061;SDS011;6597;52.218;9.882;2022-08-19T01:50:49;11.40;;;6.93;;
13061;SDS011;6597;52.218;9.882;2022-08-19T01:53:16;11.38;;;6.93;;
13061;SDS011;6597;52.218;9.882;2022-08-19T01:55:44;12.65;;;6.85;;
13061;SDS011;6597;52.218;9.882;2022-08-19T01:58:12;12.35;;;6.97;;
13061;SDS011;6597;52.218;9.882;2022-08-19T02:00:42;11.85;;;7.65;;
13061;SDS011;6597;52.218;9.882;2022-08-19T02:03:10;11.30;;;7.00;;
13061;SDS011;6597;52.218;9.882;2022-08-19T02:05:37;13.27;;;6.72;;
13061;SDS011;6597;52.218;9.882;2022-08-19T02:08:04;12.57;;;7.57;;
13061;SDS011;6597;52.218;9.882;2022-08-19T02:10:32;13.68;;;7.25;;
13061;SDS011;6597;52.218;9.882;2022-08-19T02:13:00;10.27;;;6.90;;
13061;SDS011;6597;52.218;9.882;2022-08-19T02:15:27;12.88;;;6.80;;
13061;SDS011;6597;52.218;9.882;2022-08-19T02:17:54;12.27;;;7.32;;
13061;SDS011;6597;52.218;9.882;2022-08-19T02:20:20;11.65;;;7.30;;
13061;SDS011;6597;52.218;9.882;2022-08-19T02:22:47;8.93;;;6.68;;
13061;SDS011;6597;52.218;9.882;2022-08-19T02:25:14;10.48;;;7.05;;
13061;SDS011;6597;52.218;9.882;2022-08-19T02:27:41;15.75;;;7.15;;
13061;SDS011;6597;52.218;9.882;2022-08-19T02:30:13;18.08;;;7.32;;
13061;SDS011;6597;52.218;9.882;2022-08-19T02:32:41;11.07;;;6.50;;
13061;SDS011;6597;52.218;9.882;2022-08-19T02:35:08;11.23;;;7.03;;
13061;SDS011;6597;52.218;9.882;2022-08-19T02:37:35;11.85;;;7.10;;
13061;SDS011;6597;52.218;9.882;2022-08-19T02:40:19;13.15;;;7.38;;
13061;SDS011;6597;52.218;9.882;2022-08-19T02:42:46;12.73;;;6.90;;
13061;SDS011;6597;52.218;9.882;2022-08-19T02:45:14;12.55;;;6.82;;
13061;SDS011;6597;52.218;9.882;2022-08-19T02:47:41;15.35;;;7.13;;
13061;SDS011;6597;52.218;9.882;2022-08-19T02:50:08;11.13;;;7.80;;
13061;SDS011;6597;52.218;9.882;2022-08-19T02:52:35;14.05;;;7.45;;
13061;SDS011;6597;52.218;9.882;2022-08-19T02:55:02;15.32;;;8.25;;
13061;SDS011;6597;52.218;9.882;2022-08-19T02:57:30;11.45;;;7.38;;
13061;SDS011;6597;52.218;9.882;2022-08-19T02:59:57;12.50;;;7.75;;
13061;SDS011;6597;52.218;9.882;2022-08-19T03:02:27;12.60;;;7.68;;
13061;SDS011;6597;52.218;9.882;2022-08-19T03:04:55;12.00;;;7.18;;
13061;SDS011;6597;52.218;9.882;2022-08-19T03:07:22;14.73;;;7.68;;
13061;SDS011;6597;52.218;9.882;2022-08-19T03:09:48;13.30;;;7.78;;
13061;SDS011;6597;52.218;9.882;2022-08-19T03:12:15;12.02;;;7.97;;
13061;SDS011;6597;52.218;9.882;2022-08-19T03:14:42;13.60;;;7.53;;
13061;SDS011;6597;52.218;9.882;2022-08-19T03:17:08;10.70;;;7.40;;
13061;SDS011;6597;52.218;9.882;2022-08-19T03:19:36;14.88;;;8.02;;
13061;SDS011;6597;52.218;9.882;2022-08-19T03:22:03;13.18;;;7.47;;
13061;SDS011;6597;52.218;9.882;2022-08-19T03:24:30;12.07;;;7.72;;
13061;SDS011;6597;52.218;9.882;2022-08-19T03:26:57;13.65;;;8.00;;
13061;SDS011;6597;52.218;9.882;2022-08-19T03:29:25;12.85;;;7.50;;
13061;SDS011;6597;52.218;9.882;2022-08-19T03:31:52;11.90;;;7.10;;
13061;SDS011;6597;52.218;9.882;2022-08-19T03:34:20;14.93;;;8.30;;
13061;SDS011;6597;52.218;9.882;2022-08-19T03:36:52;14.07;;;7.75;;
13061;SDS011;6597;52.218;9.882;2022-08-19T03:39:20;14.23;;;7.57;;
13061;SDS011;6597;52.218;9.882;2022-08-19T03:41:48;14.23;;;7.45;;
13061;SDS011;6597;52.218;9.882;2022-08-19T03:44:16;12.55;;;8.10;;
13061;SDS011;6597;52.218;9.882;2022-08-19T03:46:46;11.13;;;8.05;;
13061;SDS011;6597;52.218;9.882;2022-08-19T03:49:14;13.75;;;7.47;;
13061;SDS011;6597;52.218;9.882;2022-08-19T03:51:42;15.45;;;8.25;;
13061;SDS011;6597;52.218;9.882;2022-08-19T03:54:11;12.50;;;7.60;;
13061;SDS011;6597;52.218;9.882;2022-08-19T03:56:40;10.48;;;6.90;;
13061;SDS011;6597;52.218;9.882;2022-08-19T03:59:08;11.57;;;6.90;;
13061;SDS011;6597;52.218;9.882;2022-08-19T04:01:36;14.73;;;8.18;;
13061;SDS011;6597;52.218;9.882;2022-08-19T04:04:03;10.48;;;7.30;;
13061;SDS011;6597;52.218;9.882;2022-08-19T04:06:31;17.25;;;7.90;;
13061;SDS011;6597;52.218;9.882;2022-08-19T04:09:00;9.55;;;6.68;;
13061;SDS011;6597;52.218;9.882;2022-08-19T04:11:31;16.38;;;7.60;;
13061;SDS011;6597;52.218;9.882;2022-08-19T04:14:00;14.82;;;8.18;;
13061;SDS011;6597;52.218;9.882;2022-08-19T04:16:27;13.85;;;7.80;;
13061;SDS011;6597;52.218;9.882;2022-08-19T04:18:54;12.88;;;8.45;;
13061;SDS011;6597;52.218;9.882;2022-08-19T04:21:22;12.80;;;8.43;;
13061;SDS011;6597;52.218;9.882;2022-08-19T04:23:50;14.52;;;8.43;;
13061;SDS011;6597;52.218;9.882;2022-08-19T04:26:19;13.38;;;8.77;;
13061;SDS011;6597;52.218;9.882;2022-08-19T04:28:49;13.93;;;8.35;;
13061;SDS011;6597;52.218;9.882;2022-08-19T04:31:17;11.88;;;8.10;;
13061;SDS011;6597;52.218;9.882;2022-08-19T04:33:45;11.45;;;8.18;;
13061;SDS011;6597;52.218;9.882;2022-08-19T04:36:15;13.13;;;7.72;;
13061;SDS011;6597;52.218;9.882;2022-08-19T04:38:44;13.60;;;8.05;;
13061;SDS011;6597;52.218;9.882;2022-08-19T04:41:11;11.77;;;7.87;;
13061;SDS011;6597;52.218;9.882;2022-08-19T04:43:55;13.95;;;7.60;;
13061;SDS011;6597;52.218;9.882;2022-08-19T04:46:22;14.45;;;7.82;;
13061;SDS011;6597;52.218;9.882;2022-08-19T04:48:49;12.55;;;7.25;;
13061;SDS011;6597;52.218;9.882;2022-08-19T04:51:15;13.52;;;7.05;;
13061;SDS011;6597;52.218;9.882;2022-08-19T04:53:42;12.82;;;7.07;;
13061;SDS011;6597;52.218;9.882;2022-08-19T04:56:09;10.40;;;6.70;;
13061;SDS011;6597;52.218;9.882;2022-08-19T04:58:40;14.20;;;7.18;;
13061;SDS011;6597;52.218;9.882;2022-08-19T05:01:10;14.63;;;7.78;;
13061;SDS011;6597;52.218;9.882;2022-08-19T05:03:38;11.30;;;7.28;;
13061;SDS011;6597;52.218;9.882;2022-08-19T05:06:06;13.02;;;7.32;;
13061;SDS011;6597;52.218;9.882;2022-08-19T05:08:35;17.83;;;7.03;;
13061;SDS011;6597;52.218;9.882;2022-08-19T05:11:07;12.13;;;6.95;;
13061;SDS011;6597;52.218;9.882;2022-08-19T05:13:36;12.00;;;7.25;;
13061;SDS011;6597;52.218;9.882;2022-08-19T05:16:03;14.35;;;6.82;;
13061;SDS011;6597;52.218;9.882;2022-08-19T05:18:31;13.65;;;6.55;;
13061;SDS011;6597;52.218;9.882;2022-08-19T05:21:17;10.52;;;6.38;;
13061;SDS011;6597;52.218;9.882;2022-08-19T05:24:02;8.23;;;5.63;;
13061;SDS011;6597;52.218;9.882;2022-08-19T05:26:34;8.77;;;6.20;;
13061;SDS011;6597;52.218;9.882;2022-08-19T05:29:01;9.50;;;6.15;;
13061;SDS011;6597;52.218;9.882;2022-08-19T05:31:28;11.20;;;6.20;;
13061;SDS011;6597;52.218;9.882;2022-08-19T05:33:56;10.07;;;6.30;;
13061;SDS011;6597;52.218;9.882;2022-08-19T05:36:23;8.95;;;6.47;;
13061;SDS011;6597;52.218;9.882;2022-08-19T05:38:50;8.00;;;6.10;;
13061;SDS011;6597;52.218;9.882;2022-08-19T05:41:18;10.77;;;6.53;;
13061;SDS011;6597;52.218;9.882;2022-08-19T05:43:46;9.27;;;6.32;;
13061;SDS011;6597;52.218;9.882;2022-08-19T05:46:16;10.82;;;6.00;;
13061;SDS011;6597;52.218;9.882;2022-08-19T05:48:44;11.23;;;5.95;;
13061;SDS011;6597;52.218;9.882;2022-08-19T05:51:12;10.98;;;6.03;;
13061;SDS011;6597;52.218;9.882;2022-08-19T05:53:39;13.63;;;7.10;;
13061;SDS011;6597;52.218;9.882;2022-08-19T05:56:06;11.20;;;6.70;;
13061;SDS011;6597;52.218;9.882;2022-08-19T05:58:34;12.15;;;6.80;;
13061;SDS011;6597;52.218;9.882;2022-08-19T06:01:01;13.25;;;6.45;;
13061;SDS011;6597;52.218;9.882;2022-08-19T06:03:30;9.93;;;6.38;;
13061;SDS011;6597;52.218;9.882;2022-08-19T06:05:58;10.60;;;6.72;;
13061;SDS011;6597;52.218;9.882;2022-08-19T06:08:26;10.27;;;6.75;;
13061;SDS011;6597;52.218;9.882;2022-08-19T06:10:54;13.93;;;7.00;;
13061;SDS011;6597;52.218;9.882;2022-08-19T06:13:21;13.50;;;7.20;;
13061;SDS011;6597;52.218;9.882;2022-08-19T06:15:49;11.10;;;7.68;;
13061;SDS011;6597;52.218;9.882;2022-08-19T06:18:15;13.63;;;6.70;;
13061;SDS011;6597;52.218;9.882;2022-08-19T06:20:43;12.13;;;6.97;;
13061;SDS011;6597;52.218;9.882;2022-08-19T06:23:10;15.07;;;8.32;;
13061;SDS011;6597;52.218;9.882;2022-08-19T06:25:38;12.05;;;7.10;;
13061;SDS011;6597;52.218;9.882;2022-08-19T06:28:05;15.60;;;8.60;;
13061;SDS011;6597;52.218;9.882;2022-08-19T06:30:31;11.25;;;7.43;;
13061;SDS011;6597;52.218;9.882;2022-08-19T06:32:58;12.27;;;7.55;;
13061;SDS011;6597;52.218;9.882;2022-08-19T06:35:25;12.98;;;7.82;;
13061;SDS011;6597;52.218;9.882;2022-08-19T06:37:51;14.85;;;8.15;;
13061;SDS011;6597;52.218;9.882;2022-08-19T06:40:18;12.05;;;7.82;;
13061;SDS011;6597;52.218;9.882;2022-08-19T06:42:46;15.70;;;9.35;;
13061;SDS011;6597;52.218;9.882;2022-08-19T06:45:13;17.75;;;8.93;;
13061;SDS011;6597;52.218;9.882;2022-08-19T06:47:40;15.27;;;8.80;;
13061;SDS011;6597;52.218;9.882;2022-08-19T06:50:08;14.85;;;8.60;;
13061;SDS011;6597;52.218;9.882;2022-08-19T06:52:35;15.55;;;9.65;;
13061;SDS011;6597;52.218;9.882;2022-08-19T06:55:02;18.15;;;9.90;;
13061;SDS011;6597;52.218;9.882;2022-08-19T06:57:29;17.63;;;8.85;;
13061;SDS011;6597;52.218;9.882;2022-08-19T06:59:59;16.48;;;9.90;;
13061;SDS011;6597;52.218;9.882;2022-08-19T07:02:26;17.27;;;10.10;;
13061;SDS011;6597;52.218;9.882;2022-08-19T07:04:52;22.13;;;10.73;;
13061;SDS011;6597;52.218;9.882;2022-08-19T07:07:20;17.48;;;10.75;;
13061;SDS011;6597;52.218;9.882;2022-08-19T07:09:48;17.02;;;9.85;;
13061;SDS011;6597;52.218;9.882;2022-08-19T07:12:15;17.10;;;10.40;;
13061;SDS011;6597;52.218;9.882;2022-08-19T07:14:42;21.88;;;11.07;;
13061;SDS011;6597;52.218;9.882;2022-08-19T07:17:12;19.23;;;10.63;;
13061;SDS011;6597;52.218;9.882;2022-08-19T07:19:39;14.52;;;9.23;;
13061;SDS011;6597;52.218;9.882;2022-08-19T07:22:07;21.67;;;10.80;;
13061;SDS011;6597;52.218;9.882;2022-08-19T07:24:35;17.98;;;10.18;;
13061;SDS011;6597;52.218;9.882;2022-08-19T07:27:04;20.67;;;10.20;;
13061;SDS011;6597;52.218;9.882;2022-08-19T07:29:33;17.08;;;9.75;;
13061;SDS011;6597;52.218;9.882;2022-08-19T07:32:01;16.27;;;8.55;;
13061;SDS011;6597;52.218;9.882;2022-08-19T07:34:32;16.77;;;9.32;;
13061;SDS011;6597;52.218;9.882;2022-08-19T07:37:02;15.07;;;9.48;;
13061;SDS011;6597;52.218;9.882;2022-08-19T07:39:30;17.13;;;9.18;;
13061;SDS011;6597;52.218;9.882;2022-08-19T07:42:00;18.25;;;9.45;;
13061;SDS011;6597;52.218;9.882;2022-08-19T07:44:31;14.85;;;9.05;;
13061;SDS011;6597;52.218;9.882;2022-08-19T07:46:59;18.85;;;9.40;;
13061;SDS011;6597;52.218;9.882;2022-08-19T07:49:27;13.38;;;8.75;;
13061;SDS011;6597;52.218;9.882;2022-08-19T07:51:56;13.98;;;7.95;;
13061;SDS011;6597;52.218;9.882;2022-08-19T07:54:24;13.45;;;8.43;;
13061;SDS011;6597;52.218;9.882;2022-08-19T07:56:52;14.60;;;8.35;;
13061;SDS011;6597;52.218;9.882;2022-08-19T07:59:19;15.55;;;8.68;;
13061;SDS011;6597;52.218;9.882;2022-08-19T08:01:46;12.68;;;8.63;;
13061;SDS011;6597;52.218;9.882;2022-08-19T08:04:15;13.45;;;8.43;;
13061;SDS011;6597;52.218;9.882;2022-08-19T08:07:00;13.55;;;8.60;;
13061;SDS011;6597;52.218;9.882;2022-08-19T08:09:45;12.85;;;7.63;;
13061;SDS011;6597;52.218;9.882;2022-08-19T08:12:13;14.35;;;7.72;;
13061;SDS011;6597;52.218;9.882;2022-08-19T08:14:43;15.60;;;7.72;;
13061;SDS011;6597;52.218;9.882;2022-08-19T08:17:11;11.82;;;7.40;;
13061;SDS011;6597;52.218;9.882;2022-08-19T08:19:38;10.65;;;7.38;;
13061;SDS011;6597;52.218;9.882;2022-08-19T08:22:07;17.77;;;7.63;;
13061;SDS011;6597;52.218;9.882;2022-08-19T08:24:55;12.27;;;7.20;;
13061;SDS011;6597;52.218;9.882;2022-08-19T08:27:24;14.10;;;7.72;;
13061;SDS011;6597;52.218;9.882;2022-08-19T08:29:51;10.75;;;6.95;;
13061;SDS011;6597;52.218;9.882;2022-08-19T08:32:17;12.60;;;6.85;;
13061;SDS011;6597;52.218;9.882;2022-08-19T08:34:44;9.80;;;6.90;;
13061;SDS011;6597;52.218;9.882;2022-08-19T08:37:12;14.07;;;7.22;;
13061;SDS011;6597;52.218;9.882;2022-08-19T08:39:39;10.30;;;6.25;;
13061;SDS011;6597;52.218;9.882;2022-08-19T08:42:07;9.32;;;6.88;;
13061;SDS011;6597;52.218;9.882;2022-08-19T08:44:42;10.60;;;7.22;;
13061;SDS011;6597;52.218;9.882;2022-08-19T08:47:17;12.27;;;7.22;;
13061;SDS011;6597;52.218;9.882;2022-08-19T08:49:47;11.30;;;6.35;;
13061;SDS011;6597;52.218;9.882;2022-08-19T08:52:20;9.40;;;6.75;;
13061;SDS011;6597;52.218;9.882;2022-08-19T08:54:50;10.65;;;6.63;;
13061;SDS011;6597;52.218;9.882;2022-08-19T08:57:20;11.00;;;7.57;;
13061;SDS011;6597;52.218;9.882;2022-08-19T08:59:52;8.48;;;6.07;;
13061;SDS011;6597;52.218;9.882;2022-08-19T09:02:23;8.13;;;5.13;;
13061;SDS011;6597;52.218;9.882;2022-08-19T09:04:50;7.72;;;5.03;;
13061;SDS011;6597;52.218;9.882;2022-08-19T09:07:29;9.00;;;5.28;;
13061;SDS011;6597;52.218;9.882;2022-08-19T09:10:09;7.30;;;5.28;;
13061;SDS011;6597;52.218;9.882;2022-08-19T09:12:43;8.40;;;5.50;;
13061;SDS011;6597;52.218;9.882;2022-08-19T09:15:22;7.50;;;5.25;;
13061;SDS011;6597;52.218;9.882;2022-08-19T09:17:58;7.78;;;5.50;;
13061;SDS011;6597;52.218;9.882;2022-08-19T09:20:26;9.35;;;5.22;;
13061;SDS011;6597;52.218;9.882;2022-08-19T09:22:55;8.25;;;5.35;;
13061;SDS011;6597;52.218;9.882;2022-08-19T09:25:22;7.63;;;4.75;;
13061;SDS011;6597;52.218;9.882;2022-08-19T09:27:49;11.10;;;4.30;;
13061;SDS011;6597;52.218;9.882;2022-08-19T09:30:19;9.93;;;5.00;;
13061;SDS011;6597;52.218;9.882;2022-08-19T09:32:48;6.53;;;4.28;;
13061;SDS011;6597;52.218;9.882;2022-08-19T09:35:17;10.45;;;4.70;;
13061;SDS011;6597;52.218;9.882;2022-08-19T09:37:47;10.75;;;5.65;;
13061;SDS011;6597;52.218;9.882;2022-08-19T09:40:16;5.60;;;4.72;;
13061;SDS011;6597;52.218;9.882;2022-08-19T09:42:44;5.28;;;3.97;;
13061;SDS011;6597;52.218;9.882;2022-08-19T09:45:12;5.32;;;3.88;;
13061;SDS011;6597;52.218;9.882;2022-08-19T09:47:39;7.35;;;4.68;;
13061;SDS011;6597;52.218;9.882;2022-08-19T09:50:07;6.82;;;4.80;;
13061;SDS011;6597;52.218;9.882;2022-08-19T09:52:35;9.57;;;4.70;;
13061;SDS011;6597;52.218;9.882;2022-08-19T09:55:03;6.95;;;4.53;;
13061;SDS011;6597;52.218;9.882;2022-08-19T09:57:31;5.28;;;3.92;;
13061;SDS011;6597;52.218;9.882;2022-08-19T09:59:58;5.43;;;3.92;;
13061;SDS011;6597;52.218;9.882;2022-08-19T10:02:25;4.85;;;3.72;;
13061;SDS011;6597;52.218;9.882;2022-08-19T10:04:52;7.68;;;4.00;;
13061;SDS011;6597;52.218;9.882;2022-08-19T10:07:36;6.45;;;3.35;;
13061;SDS011;6597;52.218;9.882;2022-08-19T10:10:03;4.35;;;3.00;;
13061;SDS011;6597;52.218;9.882;2022-08-19T10:12:33;3.72;;;2.90;;
13061;SDS011;6597;52.218;9.882;2022-08-19T10:15:00;4.55;;;2.95;;
13061;SDS011;6597;52.218;9.882;2022-08-19T10:17:26;4.97;;;3.22;;
13061;SDS011;6597;52.218;9.882;2022-08-19T10:19:53;3.60;;;2.65;;
13061;SDS011;6597;52.218;9.882;2022-08-19T10:22:20;4.88;;;3.03;;
13061;SDS011;6597;52.218;9.882;2022-08-19T10:24:47;5.25;;;2.90;;
13061;SDS011;6597;52.218;9.882;2022-08-19T10:27:14;2.88;;;2.35;;
13061;SDS011;6597;52.218;9.882;2022-08-19T10:29:42;5.78;;;3.88;;
13061;SDS011;6597;52.218;9.882;2022-08-19T10:32:09;7.60;;;3.38;;
13061;SDS011;6597;52.218;9.882;2022-08-19T10:34:36;4.47;;;2.80;;
13061;SDS011;6597;52.218;9.882;2022-08-19T10:37:04;4.93;;;2.70;;
13061;SDS011;6597;52.218;9.882;2022-08-19T10:39:32;3.45;;;2.95;;
13061;SDS011;6597;52.218;9.882;2022-08-19T10:42:03;3.92;;;2.35;;
13061;SDS011;6597;52.218;9.882;2022-08-19T10:44:31;5.35;;;3.13;;
13061;SDS011;6597;52.218;9.882;2022-08-19T10:47:01;2.90;;;2.15;;
13061;SDS011;6597;52.218;9.882;2022-08-19T10:49:29;2.40;;;2.20;;
13061;SDS011;6597;52.218;9.882;2022-08-19T10:51:57;3.25;;;1.92;;
13061;SDS011;6597;52.218;9.882;2022-08-19T10:54:41;2.00;;;1.35;;
13061;SDS011;6597;52.218;9.882;2022-08-19T10:57:25;1.92;;;1.50;;
13061;SDS011;6597;52.218;9.882;2022-08-19T10:59:56;2.05;;;1.58;;
13061;SDS011;6597;52.218;9.882;2022-08-19T11:02:24;2.33;;;1.88;;
13061;SDS011;6597;52.218;9.882;2022-08-19T11:04:51;3.25;;;1.80;;
13061;SDS011;6597;52.218;9.882;2022-08-19T11:07:17;3.38;;;1.38;;
13061;SDS011;6597;52.218;9.882;2022-08-19T11:09:44;1.88;;;1.60;;
13061;SDS011;6597;52.218;9.882;2022-08-19T11:12:12;1.70;;;1.60;;
13061;SDS011;6597;52.218;9.882;2022-08-19T11:14:40;2.70;;;1.40;;
13061;SDS011;6597;52.218;9.882;2022-08-19T11:17:07;1.98;;;1.40;;
13061;SDS011;6597;52.218;9.882;2022-08-19T11:19:35;1.55;;;1.45;;
13061;SDS011;6597;52.218;9.882;2022-08-19T11:22:02;2.28;;;1.55;;
13061;SDS011;6597;52.218;9.882;2022-08-19T11:24:29;1.77;;;1.55;;
13061;SDS011;6597;52.218;9.882;2022-08-19T11:27:00;1.50;;;1.40;;
13061;SDS011;6597;52.218;9.882;2022-08-19T11:29:29;2.38;;;1.95;;
13061;SDS011;6597;52.218;9.882;2022-08-19T11:31:57;2.28;;;1.60;;
13061;SDS011;6597;52.218;9.882;2022-08-19T11:34:25;2.75;;;1.55;;
13061;SDS011;6597;52.218;9.882;2022-08-19T11:36:54;3.85;;;1.60;;
13061;SDS011;6597;52.218;9.882;2022-08-19T11:39:23;2.28;;;1.48;;
13061;SDS011;6597;52.218;9.882;2022-08-19T11:41:51;2.05;;;1.83;;
13061;SDS011;6597;52.218;9.882;2022-08-19T11:44:17;2.15;;;1.73;;
13061;SDS011;6597;52.218;9.882;2022-08-19T11:46:44;2.42;;;1.70;;
13061;SDS011;6597;52.218;9.882;2022-08-19T11:49:12;2.25;;;1.73;;
13061;SDS011;6597;52.218;9.882;2022-08-19T11:51:39;1.75;;;1.55;;
13061;SDS011;6597;52.218;9.882;2022-08-19T11:54:08;2.65;;;1.63;;
13061;SDS011;6597;52.218;9.882;2022-08-19T11:56:36;2.67;;;1.63;;
13061;SDS011;6597;52.218;9.882;2022-08-19T11:59:03;3.28;;;1.92;;
13061;SDS011;6597;52.218;9.882;2022-08-19T12:01:30;2.35;;;2.15;;
13061;SDS011;6597;52.218;9.882;2022-08-19T12:03:57;3.90;;;1.50;;
13061;SDS011;6597;52.218;9.882;2022-08-19T12:06:25;4.05;;;1.75;;
13061;SDS011;6597;52.218;9.882;2022-08-19T12:08:54;2.35;;;2.10;;
13061;SDS011;6597;52.218;9.882;2022-08-19T12:11:22;2.65;;;1.75;;
13061;SDS011;6597;52.218;9.882;2022-08-19T12:13:49;1.70;;;1.40;;
13061;SDS011;6597;52.218;9.882;2022-08-19T12:16:17;2.95;;;2.10;;
13061;SDS011;6597;52.218;9.882;2022-08-19T12:18:45;2.13;;;1.60;;
13061;SDS011;6597;52.218;9.882;2022-08-19T12:21:12;2.05;;;1.77;;
13061;SDS011;6597;52.218;9.882;2022-08-19T12:23:39;1.65;;;1.48;;
13061;SDS011;6597;52.218;9.882;2022-08-19T12:26:06;1.85;;;1.73;;
13061;SDS011;6597;52.218;9.882;2022-08-19T12:28:37;7.40;;;2.08;;
13061;SDS011;6597;52.218;9.882;2022-08-19T12:31:04;1.67;;;1.35;;
13061;SDS011;6597;52.218;9.882;2022-08-19T12:33:30;1.40;;;1.30;;
13061;SDS011;6597;52.218;9.882;2022-08-19T12:36:00;2.08;;;1.60;;
13061;SDS011;6597;52.218;9.882;2022-08-19T12:38:28;1.70;;;1.50;;
13061;SDS011;6597;52.218;9.882;2022-08-19T12:40:55;2.13;;;1.92;;
13061;SDS011;6597;52.218;9.882;2022-08-19T12:43:22;1.60;;;1.50;;
13061;SDS011;6597;52.218;9.882;2022-08-19T12:45:49;2.83;;;1.48;;
13061;SDS011;6597;52.218;9.882;2022-08-19T12:48:16;1.75;;;1.33;;
13061;SDS011;6597;52.218;9.882;2022-08-19T12:50:44;1.77;;;1.67;;
13061;SDS011;6597;52.218;9.882;2022-08-19T12:53:11;1.90;;;1.58;;
13061;SDS011;6597;52.218;9.882;2022-08-19T12:55:38;5.28;;;1.73;;
13061;SDS011;6597;52.218;9.882;2022-08-19T12:58:05;2.83;;;1.55;;
13061;SDS011;6597;52.218;9.882;2022-08-19T13:00:32;2.40;;;1.60;;
13061;SDS011;6597;52.218;9.882;2022-08-19T13:03:00;1.95;;;1.77;;
13061;SDS011;6597;52.218;9.882;2022-08-19T13:05:29;2.58;;;1.40;;
13061;SDS011;6597;52.218;9.882;2022-08-19T13:07:57;2.70;;;1.73;;
13061;SDS011;6597;52.218;9.882;2022-08-19T13:10:28;2.22;;;2.03;;
13061;SDS011;6597;52.218;9.882;2022-08-19T13:12:56;3.20;;;1.42;;
13061;SDS011;6597;52.218;9.882;2022-08-19T13:15:24;2.10;;;1.88;;
13061;SDS011;6597;52.218;9.882;2022-08-19T13:17:53;1.75;;;1.40;;
13061;SDS011;6597;52.218;9.882;2022-08-19T13:20:23;2.75;;;1.35;;
13061;SDS011;6597;52.218;9.882;2022-08-19T13:22:50;1.60;;;1.50;;
13061;SDS011;6597;52.218;9.882;2022-08-19T13:25:17;2.72;;;1.80;;
13061;SDS011;6597;52.218;9.882;2022-08-19T13:27:45;1.98;;;1.73;;
13061;SDS011;6597;52.218;9.882;2022-08-19T13:30:13;1.63;;;1.30;;
13061;SDS011;6597;52.218;9.882;2022-08-19T13:32:58;1.35;;;1.23;;
13061;SDS011;6597;52.218;9.882;2022-08-19T13:35:38;1.77;;;1.55;;
13061;SDS011;6597;52.218;9.882;2022-08-19T13:38:07;1.60;;;1.50;;
13061;SDS011;6597;52.218;9.882;2022-08-19T13:40:35;1.60;;;1.50;;
13061;SDS011;6597;52.218;9.882;2022-08-19T13:43:03;2.30;;;1.42;;
13061;SDS011;6597;52.218;9.882;2022-08-19T13:45:31;1.73;;;1.63;;
13061;SDS011;6597;52.218;9.882;2022-08-19T13:47:59;1.75;;;1.30;;
13061;SDS011;6597;52.218;9.882;2022-08-19T13:50:31;1.30;;;1.20;;
13061;SDS011;6597;52.218;9.882;2022-08-19T13:53:01;1.92;;;1.30;;
13061;SDS011;6597;52.218;9.882;2022-08-19T13:55:29;1.95;;;1.85;;
13061;SDS011;6597;52.218;9.882;2022-08-19T13:57:57;2.10;;;1.38;;
13061;SDS011;6597;52.218;9.882;2022-08-19T14:00:27;2.78;;;1.90;;
13061;SDS011;6597;52.218;9.882;2022-08-19T14:02:57;1.83;;;1.67;;
13061;SDS011;6597;52.218;9.882;2022-08-19T14:05:24;1.67;;;1.27;;
13061;SDS011;6597;52.218;9.882;2022-08-19T14:07:53;3.15;;;1.60;;
13061;SDS011;6597;52.218;9.882;2022-08-19T14:10:22;2.58;;;1.67;;
13061;SDS011;6597;52.218;9.882;2022-08-19T14:12:53;1.42;;;1.33;;
13061;SDS011;6597;52.218;9.882;2022-08-19T14:15:23;1.10;;;1.00;;
13061;SDS011;6597;52.218;9.882;2022-08-19T14:17:50;1.63;;;1.52;;
13061;SDS011;6597;52.218;9.882;2022-08-19T14:20:17;1.98;;;1.48;;
13061;SDS011;6597;52.218;9.882;2022-08-19T14:22:45;2.17;;;1.95;;
13061;SDS011;6597;52.218;9.882;2022-08-19T14:25:14;1.70;;;1.60;;
13061;SDS011;6597;52.218;9.882;2022-08-19T14:27:45;3.88;;;1.52;;
13061;SDS011;6597;52.218;9.882;2022-08-19T14:30:13;3.47;;;1.88;;
13061;SDS011;6597;52.218;9.882;2022-08-19T14:32:41;1.90;;;1.80;;
13061;SDS011;6597;52.218;9.882;2022-08-19T14:35:09;1.65;;;1.55;;
13061;SDS011;6597;52.218;9.882;2022-08-19T14:37:37;1.50;;;1.30;;
13061;SDS011;6597;52.218;9.882;2022-08-19T14:40:04;1.73;;;1.50;;
13061;SDS011;6597;52.218;9.882;2022-08-19T14:42:32;1.65;;;1.35;;
13061;SDS011;6597;52.218;9.882;2022-08-19T14:45:00;2.47;;;1.42;;
13061;SDS011;6597;52.218;9.882;2022-08-19T14:47:27;2.17;;;1.30;;
13061;SDS011;6597;52.218;9.882;2022-08-19T14:49:54;2.83;;;1.80;;
13061;SDS011;6597;52.218;9.882;2022-08-19T14:52:20;2.15;;;1.23;;
13061;SDS011;6597;52.218;9.882;2022-08-19T14:54:47;2.80;;;1.20;;
13061;SDS011;6597;52.218;9.882;2022-08-19T14:57:14;1.38;;;1.27;;
13061;SDS011;6597;52.218;9.882;2022-08-19T14:59:41;1.73;;;1.40;;
13061;SDS011;6597;52.218;9.882;2022-08-19T15:02:10;1.73;;;1.63;;